sensor_id;sensor_type;location;lat;lon;timestamp;P1;durP1;ratioP1;P2;durP2;ratioP2
27489;SDS011;14925;51.026;13.752;2022-09-21T00:02:11;7.95;;;3.25;;
27489;SDS011;14925;51.026;13.752;2022-09-21T00:04:37;6.93;;;3.20;;
27489;SDS011;14925;51.026;13.752;2022-09-21T00:07:02;7.60;;;3.30;;
27489;SDS011;14925;51.026;13.752;2022-09-21T00:09:28;8.30;;;3.58;;
27489;SDS011;14925;51.026;13.752;2022-09-21T00:11:53;7.97;;;3.22;;
27489;SDS011;14925;51.026;13.752;2022-09-21T00:14:19;6.70;;;3.63;;
27489;SDS011;14925;51.026;13.752;2022-09-21T00:16:44;6.50;;;3.10;;
27489;SDS011;14925;51.026;13.752;2022-09-21T00:19:09;5.13;;;3.10;;
27489;SDS011;14925;51.026;13.752;2022-09-21T00:21:36;6.57;;;2.97;;
27489;SDS011;14925;51.026;13.752;2022-09-21T00:24:02;5.65;;;3.00;;
27489;SDS011;14925;51.026;13.752;2022-09-21T00:26:28;7.03;;;3.47;;
27489;SDS011;14925;51.026;13.752;2022-09-21T00:28:54;6.88;;;3.65;;
27489;SDS011;14925;51.026;13.752;2022-09-21T00:31:21;6.35;;;3.08;;
27489;SDS011;14925;51.026;13.752;2022-09-21T00:33:47;7.50;;;3.85;;
27489;SDS011;14925;51.026;13.752;2022-09-21T00:36:15;5.72;;;3.30;;
27489;SDS011;14925;51.026;13.752;2022-09-21T00:38:42;6.68;;;3.33;;
27489;SDS011;14925;51.026;13.752;2022-09-21T00:41:08;5.28;;;3.15;;
27489;SDS011;14925;51.026;13.752;2022-09-21T00:43:35;4.50;;;3.00;;
27489;SDS011;14925;51.026;13.752;2022-09-21T00:46:03;4.82;;;3.10;;
27489;SDS011;14925;51.026;13.752;2022-09-21T00:48:36;5.78;;;3.47;;
27489;SDS011;14925;51.026;13.752;2022-09-21T00:51:02;6.00;;;3.50;;
27489;SDS011;14925;51.026;13.752;2022-09-21T00:53:30;6.65;;;2.92;;
27489;SDS011;14925;51.026;13.752;2022-09-21T00:55:56;8.02;;;3.30;;
27489;SDS011;14925;51.026;13.752;2022-09-21T00:58:25;7.65;;;3.25;;
27489;SDS011;14925;51.026;13.752;2022-09-21T01:00:54;6.47;;;3.10;;
27489;SDS011;14925;51.026;13.752;2022-09-21T01:03:20;4.95;;;3.25;;
27489;SDS011;14925;51.026;13.752;2022-09-21T01:05:46;7.90;;;3.42;;
27489;SDS011;14925;51.026;13.752;2022-09-21T01:08:11;5.55;;;3.38;;
27489;SDS011;14925;51.026;13.752;2022-09-21T01:10:44;8.10;;;3.20;;
27489;SDS011;14925;51.026;13.752;2022-09-21T01:13:24;9.30;;;4.68;;
27489;SDS011;14925;51.026;13.752;2022-09-21T01:21:36;9.48;;;4.82;;
27489;SDS011;14925;51.026;13.752;2022-09-21T01:32:33;8.98;;;4.40;;
27489;SDS011;14925;51.026;13.752;2022-09-21T01:37:31;10.38;;;5.03;;
27489;SDS011;14925;51.026;13.752;2022-09-21T01:40:00;7.40;;;4.15;;
27489;SDS011;14925;51.026;13.752;2022-09-21T01:42:30;9.30;;;4.40;;
27489;SDS011;14925;51.026;13.752;2022-09-21T01:44:57;6.90;;;4.50;;
27489;SDS011;14925;51.026;13.752;2022-09-21T01:47:25;7.47;;;4.63;;
27489;SDS011;14925;51.026;13.752;2022-09-21T01:49:51;7.55;;;4.50;;
27489;SDS011;14925;51.026;13.752;2022-09-21T01:52:27;10.13;;;4.88;;
27489;SDS011;14925;51.026;13.752;2022-09-21T01:55:00;9.80;;;4.38;;
27489;SDS011;14925;51.026;13.752;2022-09-21T02:00:42;6.68;;;4.20;;
27489;SDS011;14925;51.026;13.752;2022-09-21T02:03:14;7.45;;;4.65;;
27489;SDS011;14925;51.026;13.752;2022-09-21T02:05:45;6.75;;;4.30;;
27489;SDS011;14925;51.026;13.752;2022-09-21T02:08:11;8.93;;;4.80;;
27489;SDS011;14925;51.026;13.752;2022-09-21T02:10:38;5.00;;;3.67;;
27489;SDS011;14925;51.026;13.752;2022-09-21T02:13:07;9.93;;;4.40;;
27489;SDS011;14925;51.026;13.752;2022-09-21T02:15:40;7.63;;;3.92;;
27489;SDS011;14925;51.026;13.752;2022-09-21T02:21:17;8.65;;;4.50;;
27489;SDS011;14925;51.026;13.752;2022-09-21T02:24:01;8.95;;;4.40;;
27489;SDS011;14925;51.026;13.752;2022-09-21T02:26:36;5.88;;;3.60;;
27489;SDS011;14925;51.026;13.752;2022-09-21T02:29:09;6.43;;;4.13;;
27489;SDS011;14925;51.026;13.752;2022-09-21T02:31:52;8.48;;;4.30;;
27489;SDS011;14925;51.026;13.752;2022-09-21T02:37:15;8.88;;;4.78;;
27489;SDS011;14925;51.026;13.752;2022-09-21T02:42:46;12.88;;;6.55;;
27489;SDS011;14925;51.026;13.752;2022-09-21T02:45:13;7.50;;;4.57;;
27489;SDS011;14925;51.026;13.752;2022-09-21T02:50:20;9.55;;;5.20;;
27489;SDS011;14925;51.026;13.752;2022-09-21T02:52:47;6.38;;;4.57;;
27489;SDS011;14925;51.026;13.752;2022-09-21T02:55:13;11.60;;;5.00;;
27489;SDS011;14925;51.026;13.752;2022-09-21T02:57:39;7.90;;;4.85;;
27489;SDS011;14925;51.026;13.752;2022-09-21T03:00:05;10.88;;;4.95;;
27489;SDS011;14925;51.026;13.752;2022-09-21T03:02:37;9.35;;;4.97;;
27489;SDS011;14925;51.026;13.752;2022-09-21T03:05:05;8.18;;;4.20;;
27489;SDS011;14925;51.026;13.752;2022-09-21T03:07:31;10.15;;;6.18;;
27489;SDS011;14925;51.026;13.752;2022-09-21T03:09:56;9.25;;;5.82;;
27489;SDS011;14925;51.026;13.752;2022-09-21T03:12:22;9.55;;;5.82;;
27489;SDS011;14925;51.026;13.752;2022-09-21T03:14:47;10.88;;;6.30;;
27489;SDS011;14925;51.026;13.752;2022-09-21T03:17:15;11.73;;;5.80;;
27489;SDS011;14925;51.026;13.752;2022-09-21T03:19:40;12.30;;;6.80;;
27489;SDS011;14925;51.026;13.752;2022-09-21T03:22:06;10.70;;;5.97;;
27489;SDS011;14925;51.026;13.752;2022-09-21T03:24:31;11.13;;;6.30;;
27489;SDS011;14925;51.026;13.752;2022-09-21T03:27:16;9.40;;;5.90;;
27489;SDS011;14925;51.026;13.752;2022-09-21T03:29:43;15.32;;;6.35;;
27489;SDS011;14925;51.026;13.752;2022-09-21T03:32:09;13.15;;;5.90;;
27489;SDS011;14925;51.026;13.752;2022-09-21T03:34:34;10.82;;;6.35;;
27489;SDS011;14925;51.026;13.752;2022-09-21T03:37:04;12.23;;;6.68;;
27489;SDS011;14925;51.026;13.752;2022-09-21T03:39:30;9.13;;;6.20;;
27489;SDS011;14925;51.026;13.752;2022-09-21T03:41:56;16.40;;;7.80;;
27489;SDS011;14925;51.026;13.752;2022-09-21T03:44:22;10.68;;;6.15;;
27489;SDS011;14925;51.026;13.752;2022-09-21T03:46:48;10.82;;;6.07;;
27489;SDS011;14925;51.026;13.752;2022-09-21T03:49:14;11.98;;;6.57;;
27489;SDS011;14925;51.026;13.752;2022-09-21T03:51:40;12.07;;;6.82;;
27489;SDS011;14925;51.026;13.752;2022-09-21T03:54:05;12.50;;;6.80;;
27489;SDS011;14925;51.026;13.752;2022-09-21T03:56:31;11.50;;;6.53;;
27489;SDS011;14925;51.026;13.752;2022-09-21T03:58:56;13.48;;;6.55;;
27489;SDS011;14925;51.026;13.752;2022-09-21T04:01:21;13.82;;;6.38;;
27489;SDS011;14925;51.026;13.752;2022-09-21T04:03:50;12.95;;;6.80;;
27489;SDS011;14925;51.026;13.752;2022-09-21T04:06:15;11.48;;;6.72;;
27489;SDS011;14925;51.026;13.752;2022-09-21T04:08:41;12.52;;;7.05;;
27489;SDS011;14925;51.026;13.752;2022-09-21T04:11:13;13.85;;;6.80;;
27489;SDS011;14925;51.026;13.752;2022-09-21T04:13:40;14.10;;;7.07;;
27489;SDS011;14925;51.026;13.752;2022-09-21T04:16:06;11.85;;;6.95;;
27489;SDS011;14925;51.026;13.752;2022-09-21T04:18:37;13.73;;;7.13;;
27489;SDS011;14925;51.026;13.752;2022-09-21T04:21:03;12.35;;;6.82;;
27489;SDS011;14925;51.026;13.752;2022-09-21T04:23:30;10.55;;;7.20;;
27489;SDS011;14925;51.026;13.752;2022-09-21T04:25:55;14.40;;;7.70;;
27489;SDS011;14925;51.026;13.752;2022-09-21T04:28:21;13.40;;;7.47;;
27489;SDS011;14925;51.026;13.752;2022-09-21T04:30:51;13.10;;;7.40;;
27489;SDS011;14925;51.026;13.752;2022-09-21T04:33:19;13.10;;;7.40;;
27489;SDS011;14925;51.026;13.752;2022-09-21T04:35:46;16.83;;;8.02;;
27489;SDS011;14925;51.026;13.752;2022-09-21T04:38:12;11.88;;;7.53;;
27489;SDS011;14925;51.026;13.752;2022-09-21T04:40:37;12.77;;;7.35;;
27489;SDS011;14925;51.026;13.752;2022-09-21T04:43:03;15.68;;;7.78;;
27489;SDS011;14925;51.026;13.752;2022-09-21T04:45:28;12.63;;;8.32;;
27489;SDS011;14925;51.026;13.752;2022-09-21T04:47:54;15.65;;;8.52;;
27489;SDS011;14925;51.026;13.752;2022-09-21T04:50:19;13.85;;;8.27;;
27489;SDS011;14925;51.026;13.752;2022-09-21T04:52:44;18.08;;;9.40;;
27489;SDS011;14925;51.026;13.752;2022-09-21T04:55:10;14.95;;;9.20;;
27489;SDS011;14925;51.026;13.752;2022-09-21T04:57:35;13.80;;;8.98;;
27489;SDS011;14925;51.026;13.752;2022-09-21T05:00:01;19.33;;;9.45;;
27489;SDS011;14925;51.026;13.752;2022-09-21T05:02:28;18.83;;;10.02;;
27489;SDS011;14925;51.026;13.752;2022-09-21T05:04:53;22.50;;;10.05;;
27489;SDS011;14925;51.026;13.752;2022-09-21T05:07:19;15.15;;;9.55;;
27489;SDS011;14925;51.026;13.752;2022-09-21T05:09:44;19.98;;;9.63;;
27489;SDS011;14925;51.026;13.752;2022-09-21T05:12:28;18.75;;;9.35;;
27489;SDS011;14925;51.026;13.752;2022-09-21T05:15:00;19.90;;;10.00;;
27489;SDS011;14925;51.026;13.752;2022-09-21T05:17:25;19.85;;;9.60;;
27489;SDS011;14925;51.026;13.752;2022-09-21T05:19:51;13.65;;;9.35;;
27489;SDS011;14925;51.026;13.752;2022-09-21T05:22:19;16.42;;;9.82;;
27489;SDS011;14925;51.026;13.752;2022-09-21T05:24:48;17.52;;;9.77;;
27489;SDS011;14925;51.026;13.752;2022-09-21T05:27:13;15.85;;;9.02;;
27489;SDS011;14925;51.026;13.752;2022-09-21T05:29:39;15.38;;;9.13;;
27489;SDS011;14925;51.026;13.752;2022-09-21T05:32:12;18.83;;;9.10;;
27489;SDS011;14925;51.026;13.752;2022-09-21T05:34:52;18.33;;;10.00;;
27489;SDS011;14925;51.026;13.752;2022-09-21T05:37:40;16.80;;;9.43;;
27489;SDS011;14925;51.026;13.752;2022-09-21T05:42:38;16.33;;;10.15;;
27489;SDS011;14925;51.026;13.752;2022-09-21T05:45:04;16.02;;;9.52;;
27489;SDS011;14925;51.026;13.752;2022-09-21T05:47:36;15.93;;;9.73;;
27489;SDS011;14925;51.026;13.752;2022-09-21T05:53:08;16.10;;;9.43;;
27489;SDS011;14925;51.026;13.752;2022-09-21T05:55:54;16.20;;;9.65;;
27489;SDS011;14925;51.026;13.752;2022-09-21T06:01:18;15.90;;;10.20;;
27489;SDS011;14925;51.026;13.752;2022-09-21T06:03:57;16.05;;;9.20;;
27489;SDS011;14925;51.026;13.752;2022-09-21T06:06:23;17.40;;;10.20;;
27489;SDS011;14925;51.026;13.752;2022-09-21T06:08:49;14.82;;;8.63;;
27489;SDS011;14925;51.026;13.752;2022-09-21T06:11:14;17.60;;;9.18;;
27489;SDS011;14925;51.026;13.752;2022-09-21T06:13:40;15.68;;;9.02;;
27489;SDS011;14925;51.026;13.752;2022-09-21T06:16:06;13.88;;;8.60;;
27489;SDS011;14925;51.026;13.752;2022-09-21T06:18:35;15.35;;;8.88;;
27489;SDS011;14925;51.026;13.752;2022-09-21T06:21:04;13.70;;;8.65;;
27489;SDS011;14925;51.026;13.752;2022-09-21T06:23:31;18.13;;;9.90;;
27489;SDS011;14925;51.026;13.752;2022-09-21T06:25:56;15.45;;;8.93;;
27489;SDS011;14925;51.026;13.752;2022-09-21T06:28:22;13.50;;;8.60;;
27489;SDS011;14925;51.026;13.752;2022-09-21T06:30:51;18.40;;;9.18;;
27489;SDS011;14925;51.026;13.752;2022-09-21T06:33:17;14.15;;;9.50;;
27489;SDS011;14925;51.026;13.752;2022-09-21T06:35:51;15.65;;;9.35;;
27489;SDS011;14925;51.026;13.752;2022-09-21T06:38:18;15.57;;;8.90;;
27489;SDS011;14925;51.026;13.752;2022-09-21T06:40:43;16.13;;;9.38;;
27489;SDS011;14925;51.026;13.752;2022-09-21T06:43:08;20.52;;;9.05;;
27489;SDS011;14925;51.026;13.752;2022-09-21T06:45:34;17.05;;;9.05;;
27489;SDS011;14925;51.026;13.752;2022-09-21T06:47:59;14.77;;;8.38;;
27489;SDS011;14925;51.026;13.752;2022-09-21T06:50:24;14.98;;;8.52;;
27489;SDS011;14925;51.026;13.752;2022-09-21T06:52:50;15.52;;;8.77;;
27489;SDS011;14925;51.026;13.752;2022-09-21T06:55:16;17.73;;;9.23;;
27489;SDS011;14925;51.026;13.752;2022-09-21T06:57:41;14.20;;;9.43;;
27489;SDS011;14925;51.026;13.752;2022-09-21T07:00:08;15.38;;;9.40;;
27489;SDS011;14925;51.026;13.752;2022-09-21T07:02:34;16.90;;;8.25;;
27489;SDS011;14925;51.026;13.752;2022-09-21T07:05:00;15.57;;;9.10;;
27489;SDS011;14925;51.026;13.752;2022-09-21T07:07:26;15.43;;;8.23;;
27489;SDS011;14925;51.026;13.752;2022-09-21T07:09:54;12.40;;;8.65;;
27489;SDS011;14925;51.026;13.752;2022-09-21T07:12:19;16.35;;;8.90;;
27489;SDS011;14925;51.026;13.752;2022-09-21T07:14:45;17.48;;;8.65;;
27489;SDS011;14925;51.026;13.752;2022-09-21T07:17:12;10.98;;;7.80;;
27489;SDS011;14925;51.026;13.752;2022-09-21T07:19:39;13.10;;;9.00;;
27489;SDS011;14925;51.026;13.752;2022-09-21T07:22:04;12.90;;;8.52;;
27489;SDS011;14925;51.026;13.752;2022-09-21T07:24:30;15.25;;;8.45;;
27489;SDS011;14925;51.026;13.752;2022-09-21T07:26:55;18.75;;;8.13;;
27489;SDS011;14925;51.026;13.752;2022-09-21T07:29:21;14.13;;;7.60;;
27489;SDS011;14925;51.026;13.752;2022-09-21T07:31:47;17.65;;;7.82;;
27489;SDS011;14925;51.026;13.752;2022-09-21T07:34:12;14.07;;;7.95;;
27489;SDS011;14925;51.026;13.752;2022-09-21T07:36:38;12.15;;;7.78;;
27489;SDS011;14925;51.026;13.752;2022-09-21T07:39:03;12.90;;;7.38;;
27489;SDS011;14925;51.026;13.752;2022-09-21T07:41:29;12.90;;;7.80;;
27489;SDS011;14925;51.026;13.752;2022-09-21T07:43:54;13.85;;;7.55;;
27489;SDS011;14925;51.026;13.752;2022-09-21T07:46:19;13.80;;;7.97;;
27489;SDS011;14925;51.026;13.752;2022-09-21T07:48:45;11.73;;;7.50;;
27489;SDS011;14925;51.026;13.752;2022-09-21T07:51:11;12.30;;;8.50;;
27489;SDS011;14925;51.026;13.752;2022-09-21T07:53:38;13.75;;;7.82;;
27489;SDS011;14925;51.026;13.752;2022-09-21T07:56:06;14.15;;;8.57;;
27489;SDS011;14925;51.026;13.752;2022-09-21T07:58:36;13.75;;;7.97;;
27489;SDS011;14925;51.026;13.752;2022-09-21T08:01:21;16.48;;;7.00;;
27489;SDS011;14925;51.026;13.752;2022-09-21T08:03:50;15.07;;;7.30;;
27489;SDS011;14925;51.026;13.752;2022-09-21T08:06:16;14.48;;;7.40;;
27489;SDS011;14925;51.026;13.752;2022-09-21T08:08:42;12.48;;;7.15;;
27489;SDS011;14925;51.026;13.752;2022-09-21T08:11:08;12.77;;;6.65;;
27489;SDS011;14925;51.026;13.752;2022-09-21T08:13:35;12.05;;;6.32;;
27489;SDS011;14925;51.026;13.752;2022-09-21T08:16:01;10.60;;;6.50;;
27489;SDS011;14925;51.026;13.752;2022-09-21T08:18:27;18.33;;;7.35;;
27489;SDS011;14925;51.026;13.752;2022-09-21T08:20:55;14.38;;;6.80;;
27489;SDS011;14925;51.026;13.752;2022-09-21T08:23:23;15.13;;;6.90;;
27489;SDS011;14925;51.026;13.752;2022-09-21T08:25:50;13.38;;;6.70;;
27489;SDS011;14925;51.026;13.752;2022-09-21T08:28:15;12.45;;;6.05;;
27489;SDS011;14925;51.026;13.752;2022-09-21T08:30:42;14.48;;;7.43;;
27489;SDS011;14925;51.026;13.752;2022-09-21T08:33:08;11.07;;;6.30;;
27489;SDS011;14925;51.026;13.752;2022-09-21T08:35:33;12.02;;;6.30;;
27489;SDS011;14925;51.026;13.752;2022-09-21T08:37:59;11.65;;;5.95;;
27489;SDS011;14925;51.026;13.752;2022-09-21T08:40:24;10.38;;;5.53;;
27489;SDS011;14925;51.026;13.752;2022-09-21T08:45:24;8.18;;;4.93;;
27489;SDS011;14925;51.026;13.752;2022-09-21T08:47:54;13.70;;;5.13;;
27489;SDS011;14925;51.026;13.752;2022-09-21T08:52:47;10.35;;;4.43;;
27489;SDS011;14925;51.026;13.752;2022-09-21T08:55:17;10.15;;;4.82;;
27489;SDS011;14925;51.026;13.752;2022-09-21T08:57:43;6.97;;;4.07;;
27489;SDS011;14925;51.026;13.752;2022-09-21T09:05:26;11.45;;;4.70;;
27489;SDS011;14925;51.026;13.752;2022-09-21T09:08:07;10.90;;;4.47;;
27489;SDS011;14925;51.026;13.752;2022-09-21T09:18:44;8.70;;;3.25;;
27489;SDS011;14925;51.026;13.752;2022-09-21T09:21:19;8.43;;;3.42;;
27489;SDS011;14925;51.026;13.752;2022-09-21T09:23:51;7.18;;;3.00;;
27489;SDS011;14925;51.026;13.752;2022-09-21T09:29:45;6.55;;;2.63;;
27489;SDS011;14925;51.026;13.752;2022-09-21T09:32:18;6.75;;;2.70;;
27489;SDS011;14925;51.026;13.752;2022-09-21T09:34:51;9.82;;;2.50;;
27489;SDS011;14925;51.026;13.752;2022-09-21T09:37:23;7.32;;;2.80;;
27489;SDS011;14925;51.026;13.752;2022-09-21T09:39:55;9.68;;;2.95;;
27489;SDS011;14925;51.026;13.752;2022-09-21T09:45:21;4.75;;;2.47;;
27489;SDS011;14925;51.026;13.752;2022-09-21T09:48:04;5.43;;;2.35;;
27489;SDS011;14925;51.026;13.752;2022-09-21T09:50:35;6.93;;;2.30;;
27489;SDS011;14925;51.026;13.752;2022-09-21T09:55:37;5.20;;;2.08;;
27489;SDS011;14925;51.026;13.752;2022-09-21T09:58:04;7.82;;;2.72;;
27489;SDS011;14925;51.026;13.752;2022-09-21T10:00:36;3.22;;;2.30;;
27489;SDS011;14925;51.026;13.752;2022-09-21T10:03:06;8.90;;;2.28;;
27489;SDS011;14925;51.026;13.752;2022-09-21T10:05:40;6.90;;;2.40;;
27489;SDS011;14925;51.026;13.752;2022-09-21T10:08:13;6.07;;;2.20;;
27489;SDS011;14925;51.026;13.752;2022-09-21T10:10:51;5.50;;;1.80;;
27489;SDS011;14925;51.026;13.752;2022-09-21T10:13:27;4.22;;;1.67;;
27489;SDS011;14925;51.026;13.752;2022-09-21T10:16:00;7.20;;;2.10;;
27489;SDS011;14925;51.026;13.752;2022-09-21T10:18:39;5.30;;;1.77;;
27489;SDS011;14925;51.026;13.752;2022-09-21T10:23:50;5.53;;;2.03;;
27489;SDS011;14925;51.026;13.752;2022-09-21T10:26:18;3.65;;;1.90;;
27489;SDS011;14925;51.026;13.752;2022-09-21T10:28:54;4.00;;;1.80;;
27489;SDS011;14925;51.026;13.752;2022-09-21T10:31:24;7.05;;;1.50;;
27489;SDS011;14925;51.026;13.752;2022-09-21T10:33:53;3.55;;;1.70;;
27489;SDS011;14925;51.026;13.752;2022-09-21T10:36:34;8.35;;;1.90;;
27489;SDS011;14925;51.026;13.752;2022-09-21T10:41:49;5.10;;;1.40;;
27489;SDS011;14925;51.026;13.752;2022-09-21T10:44:17;5.78;;;1.60;;
27489;SDS011;14925;51.026;13.752;2022-09-21T10:46:43;5.93;;;1.50;;
27489;SDS011;14925;51.026;13.752;2022-09-21T10:49:14;4.10;;;1.30;;
27489;SDS011;14925;51.026;13.752;2022-09-21T10:51:41;6.18;;;2.10;;
27489;SDS011;14925;51.026;13.752;2022-09-21T10:54:09;3.80;;;1.92;;
27489;SDS011;14925;51.026;13.752;2022-09-21T10:56:35;6.18;;;1.63;;
27489;SDS011;14925;51.026;13.752;2022-09-21T10:59:20;6.93;;;1.50;;
27489;SDS011;14925;51.026;13.752;2022-09-21T11:01:49;3.90;;;1.33;;
27489;SDS011;14925;51.026;13.752;2022-09-21T11:04:17;6.05;;;1.70;;
27489;SDS011;14925;51.026;13.752;2022-09-21T11:06:48;6.80;;;1.55;;
27489;SDS011;14925;51.026;13.752;2022-09-21T11:19:53;4.32;;;1.58;;
27489;SDS011;14925;51.026;13.752;2022-09-21T11:39:29;6.00;;;1.40;;
27489;SDS011;14925;51.026;13.752;2022-09-21T11:53:35;2.83;;;1.30;;
27489;SDS011;14925;51.026;13.752;2022-09-21T11:58:46;1.98;;;1.20;;
27489;SDS011;14925;51.026;13.752;2022-09-21T12:11:45;3.47;;;1.45;;
27489;SDS011;14925;51.026;13.752;2022-09-21T12:14:20;6.18;;;1.45;;
27489;SDS011;14925;51.026;13.752;2022-09-21T12:17:02;2.63;;;1.40;;
27489;SDS011;14925;51.026;13.752;2022-09-21T12:22:24;3.67;;;1.20;;
27489;SDS011;14925;51.026;13.752;2022-09-21T12:24:56;2.88;;;1.40;;
27489;SDS011;14925;51.026;13.752;2022-09-21T12:30:18;2.88;;;1.20;;
27489;SDS011;14925;51.026;13.752;2022-09-21T12:33:03;2.13;;;1.38;;
27489;SDS011;14925;51.026;13.752;2022-09-21T12:35:41;3.83;;;1.60;;
27489;SDS011;14925;51.026;13.752;2022-09-21T12:38:11;2.75;;;1.23;;
27489;SDS011;14925;51.026;13.752;2022-09-21T12:48:46;4.65;;;1.40;;
27489;SDS011;14925;51.026;13.752;2022-09-21T12:53:44;7.05;;;1.45;;
27489;SDS011;14925;51.026;13.752;2022-09-21T12:56:20;6.25;;;1.20;;
27489;SDS011;14925;51.026;13.752;2022-09-21T12:58:59;5.30;;;1.50;;
27489;SDS011;14925;51.026;13.752;2022-09-21T13:04:21;4.35;;;1.10;;
27489;SDS011;14925;51.026;13.752;2022-09-21T13:09:33;3.38;;;0.90;;
27489;SDS011;14925;51.026;13.752;2022-09-21T13:14:42;3.97;;;1.23;;
27489;SDS011;14925;51.026;13.752;2022-09-21T13:17:17;7.53;;;1.48;;
27489;SDS011;14925;51.026;13.752;2022-09-21T13:19:48;3.35;;;1.40;;
27489;SDS011;14925;51.026;13.752;2022-09-21T13:22:24;6.38;;;1.30;;
27489;SDS011;14925;51.026;13.752;2022-09-21T13:24:57;1.60;;;1.20;;
27489;SDS011;14925;51.026;13.752;2022-09-21T13:30:41;4.38;;;1.45;;
27489;SDS011;14925;51.026;13.752;2022-09-21T13:49:19;2.75;;;1.17;;
27489;SDS011;14925;51.026;13.752;2022-09-21T13:54:51;3.47;;;1.35;;
27489;SDS011;14925;51.026;13.752;2022-09-21T13:57:43;5.65;;;1.33;;
27489;SDS011;14925;51.026;13.752;2022-09-21T14:10:44;6.05;;;1.10;;
27489;SDS011;14925;51.026;13.752;2022-09-21T14:18:57;2.60;;;1.23;;
27489;SDS011;14925;51.026;13.752;2022-09-21T14:21:23;3.35;;;1.00;;
27489;SDS011;14925;51.026;13.752;2022-09-21T14:32:14;1.48;;;1.00;;
27489;SDS011;14925;51.026;13.752;2022-09-21T14:34:42;3.67;;;1.23;;
27489;SDS011;14925;51.026;13.752;2022-09-21T14:37:18;3.03;;;1.30;;
27489;SDS011;14925;51.026;13.752;2022-09-21T14:39:52;3.58;;;1.10;;
27489;SDS011;14925;51.026;13.752;2022-09-21T14:42:18;2.50;;;1.20;;
27489;SDS011;14925;51.026;13.752;2022-09-21T14:44:46;3.85;;;1.10;;
27489;SDS011;14925;51.026;13.752;2022-09-21T14:52:50;2.85;;;1.50;;
27489;SDS011;14925;51.026;13.752;2022-09-21T14:55:44;1.80;;;1.50;;
27489;SDS011;14925;51.026;13.752;2022-09-21T14:58:16;2.65;;;1.30;;
27489;SDS011;14925;51.026;13.752;2022-09-21T15:13:08;4.43;;;1.95;;
27489;SDS011;14925;51.026;13.752;2022-09-21T15:18:32;8.13;;;2.33;;
27489;SDS011;14925;51.026;13.752;2022-09-21T15:21:15;4.60;;;2.20;;
27489;SDS011;14925;51.026;13.752;2022-09-21T15:26:55;2.95;;;2.15;;
27489;SDS011;14925;51.026;13.752;2022-09-21T15:29:36;5.40;;;2.15;;
27489;SDS011;14925;51.026;13.752;2022-09-21T15:32:15;6.28;;;2.70;;
27489;SDS011;14925;51.026;13.752;2022-09-21T15:37:39;4.88;;;3.30;;
27489;SDS011;14925;51.026;13.752;2022-09-21T15:40:13;7.68;;;4.38;;
27489;SDS011;14925;51.026;13.752;2022-09-21T15:45:52;5.22;;;4.35;;
27489;SDS011;14925;51.026;13.752;2022-09-21T15:48:30;6.85;;;4.28;;
27489;SDS011;14925;51.026;13.752;2022-09-21T15:51:18;6.70;;;3.78;;
27489;SDS011;14925;51.026;13.752;2022-09-21T15:53:51;5.32;;;3.80;;
27489;SDS011;14925;51.026;13.752;2022-09-21T15:56:37;5.97;;;3.60;;
27489;SDS011;14925;51.026;13.752;2022-09-21T15:59:09;6.50;;;3.90;;
27489;SDS011;14925;51.026;13.752;2022-09-21T16:01:39;4.50;;;3.25;;
27489;SDS011;14925;51.026;13.752;2022-09-21T16:04:07;4.40;;;3.20;;
27489;SDS011;14925;51.026;13.752;2022-09-21T16:06:40;9.07;;;2.63;;
27489;SDS011;14925;51.026;13.752;2022-09-21T16:11:50;3.95;;;2.75;;
27489;SDS011;14925;51.026;13.752;2022-09-21T16:14:16;7.03;;;3.08;;
27489;SDS011;14925;51.026;13.752;2022-09-21T16:20:14;5.40;;;3.23;;
27489;SDS011;14925;51.026;13.752;2022-09-21T16:22:42;5.78;;;3.50;;
27489;SDS011;14925;51.026;13.752;2022-09-21T16:28:25;5.53;;;3.80;;
27489;SDS011;14925;51.026;13.752;2022-09-21T16:30:47;6.57;;;4.90;;
27489;SDS011;14925;51.026;13.752;2022-09-21T16:36:50;7.03;;;5.20;;
27489;SDS011;14925;51.026;13.752;2022-09-21T16:38:56;8.05;;;5.60;;
27489;SDS011;14925;51.026;13.752;2022-09-21T16:41:22;7.03;;;5.82;;
27489;SDS011;14925;51.026;13.752;2022-09-21T16:43:50;8.88;;;5.40;;
27489;SDS011;14925;51.026;13.752;2022-09-21T16:46:16;11.32;;;6.10;;
27489;SDS011;14925;51.026;13.752;2022-09-21T16:48:42;8.95;;;6.00;;
27489;SDS011;14925;51.026;13.752;2022-09-21T16:51:12;7.22;;;5.10;;
27489;SDS011;14925;51.026;13.752;2022-09-21T16:53:38;8.85;;;6.13;;
27489;SDS011;14925;51.026;13.752;2022-09-21T16:56:04;7.40;;;6.22;;
27489;SDS011;14925;51.026;13.752;2022-09-21T16:58:31;7.75;;;5.72;;
27489;SDS011;14925;51.026;13.752;2022-09-21T17:00:56;9.38;;;6.47;;
27489;SDS011;14925;51.026;13.752;2022-09-21T17:03:21;9.73;;;6.28;;
27489;SDS011;14925;51.026;13.752;2022-09-21T17:05:47;8.63;;;6.00;;
27489;SDS011;14925;51.026;13.752;2022-09-21T17:08:12;9.18;;;6.90;;
27489;SDS011;14925;51.026;13.752;2022-09-21T17:10:41;12.02;;;6.63;;
27489;SDS011;14925;51.026;13.752;2022-09-21T17:13:08;13.13;;;7.90;;
27489;SDS011;14925;51.026;13.752;2022-09-21T17:15:34;12.85;;;8.85;;
27489;SDS011;14925;51.026;13.752;2022-09-21T17:18:00;14.55;;;8.88;;
27489;SDS011;14925;51.026;13.752;2022-09-21T17:20:32;13.50;;;9.60;;
27489;SDS011;14925;51.026;13.752;2022-09-21T17:22:59;16.02;;;10.80;;
27489;SDS011;14925;51.026;13.752;2022-09-21T17:25:27;14.70;;;11.20;;
27489;SDS011;14925;51.026;13.752;2022-09-21T17:27:53;12.07;;;9.10;;
27489;SDS011;14925;51.026;13.752;2022-09-21T17:30:21;13.48;;;10.40;;
27489;SDS011;14925;51.026;13.752;2022-09-21T17:32:48;14.20;;;9.10;;
27489;SDS011;14925;51.026;13.752;2022-09-21T17:37:52;14.15;;;8.27;;
27489;SDS011;14925;51.026;13.752;2022-09-21T17:40:18;11.02;;;7.97;;
27489;SDS011;14925;51.026;13.752;2022-09-21T17:42:43;17.80;;;12.15;;
27489;SDS011;14925;51.026;13.752;2022-09-21T17:45:25;12.18;;;9.70;;
27489;SDS011;14925;51.026;13.752;2022-09-21T17:48:00;14.23;;;10.02;;
27489;SDS011;14925;51.026;13.752;2022-09-21T17:50:26;15.15;;;9.38;;
27489;SDS011;14925;51.026;13.752;2022-09-21T17:52:53;15.00;;;10.18;;
27489;SDS011;14925;51.026;13.752;2022-09-21T17:55:38;15.02;;;9.70;;
27489;SDS011;14925;51.026;13.752;2022-09-21T18:06:11;19.30;;;8.93;;
27489;SDS011;14925;51.026;13.752;2022-09-21T18:08:38;12.52;;;10.07;;
27489;SDS011;14925;51.026;13.752;2022-09-21T18:13:53;11.70;;;8.95;;
27489;SDS011;14925;51.026;13.752;2022-09-21T18:22:01;18.00;;;11.70;;
27489;SDS011;14925;51.026;13.752;2022-09-21T18:24:40;15.23;;;8.52;;
27489;SDS011;14925;51.026;13.752;2022-09-21T18:27:06;17.63;;;10.68;;
27489;SDS011;14925;51.026;13.752;2022-09-21T18:29:33;19.23;;;10.65;;
27489;SDS011;14925;51.026;13.752;2022-09-21T18:40:47;12.73;;;9.05;;
27489;SDS011;14925;51.026;13.752;2022-09-21T18:46:30;11.05;;;8.48;;
27489;SDS011;14925;51.026;13.752;2022-09-21T18:49:04;10.32;;;8.27;;
27489;SDS011;14925;51.026;13.752;2022-09-21T18:51:47;15.35;;;10.25;;
27489;SDS011;14925;51.026;13.752;2022-09-21T18:54:22;13.05;;;9.63;;
27489;SDS011;14925;51.026;13.752;2022-09-21T18:56:51;21.13;;;13.07;;
27489;SDS011;14925;51.026;13.752;2022-09-21T18:59:16;15.25;;;9.43;;
27489;SDS011;14925;51.026;13.752;2022-09-21T19:01:42;14.40;;;8.98;;
27489;SDS011;14925;51.026;13.752;2022-09-21T19:04:08;11.95;;;8.32;;
27489;SDS011;14925;51.026;13.752;2022-09-21T19:14:44;12.35;;;8.48;;
27489;SDS011;14925;51.026;13.752;2022-09-21T19:25:40;21.05;;;14.52;;
27489;SDS011;14925;51.026;13.752;2022-09-21T19:31:18;16.98;;;12.32;;